createdAt,value
2022-11-05T00:00:34.345Z,95.65
2022-11-05T00:03:19.604Z,95.72
2022-11-05T00:06:07.295Z,95.87
2022-11-05T00:08:52.668Z,95.67
2022-11-05T00:11:19.298Z,95.99
2022-11-05T00:14:04.341Z,95.78
2022-11-05T00:16:45.693Z,95.72
2022-11-05T00:19:13.518Z,95.42
2022-11-05T00:21:58.553Z,95.17
2022-11-05T00:24:43.917Z,95.52
2022-11-05T00:27:11.045Z,95.67
2022-11-05T00:29:37.871Z,95.72
2022-11-05T00:32:04.640Z,96.11
2022-11-05T00:34:31.192Z,96.27
2022-11-05T00:36:57.718Z,96.04
2022-11-05T00:39:24.720Z,96.22
2022-11-05T00:42:17.971Z,95.59
2022-11-05T00:45:02.378Z,95.58
2022-11-05T00:47:49.090Z,95.52
2022-11-05T00:50:16.583Z,95.37
2022-11-05T00:53:00.356Z,95.69
2022-11-05T00:55:39.709Z,95.72
2022-11-05T00:58:08.802Z,95.50
2022-11-05T01:00:37.969Z,95.43
2022-11-05T01:03:08.343Z,95.39
2022-11-05T01:05:39.970Z,95.69
2022-11-05T01:08:06.523Z,96.27
2022-11-05T01:10:33.026Z,96.35
2022-11-05T01:12:59.613Z,96.14
2022-11-05T01:15:26.528Z,96.28
2022-11-05T01:17:53.078Z,96.45
2022-11-05T01:20:19.873Z,96.60
2022-11-05T01:22:46.487Z,96.10
2022-11-05T01:25:13.068Z,96.31
2022-11-05T01:27:39.669Z,96.49
2022-11-05T01:30:08.017Z,96.51
2022-11-05T01:32:36.274Z,96.82
2022-11-05T01:35:04.953Z,96.74
2022-11-05T01:37:31.496Z,96.92
2022-11-05T01:39:58.056Z,96.37
2022-11-05T01:42:26.578Z,96.60
2022-11-05T01:45:03.884Z,96.51
2022-11-05T01:47:52.014Z,96.57
2022-11-05T01:50:39.839Z,96.65
2022-11-05T01:53:21.719Z,96.39
2022-11-05T01:55:55.356Z,96.43
2022-11-05T01:58:24.319Z,96.44
2022-11-05T02:00:51.214Z,96.44
2022-11-05T02:03:18.855Z,96.37
2022-11-05T02:05:48.240Z,96.42
2022-11-05T02:08:53.363Z,96.21
2022-11-05T02:11:20.459Z,96.00
2022-11-05T02:13:48.237Z,95.83
2022-11-05T02:16:36.790Z,96.14
2022-11-05T02:19:28.150Z,96.32
2022-11-05T02:22:00.555Z,96.58
2022-11-05T02:24:51.960Z,96.32
2022-11-05T02:27:37.963Z,95.72
2022-11-05T02:30:29.904Z,95.72
2022-11-05T02:33:12.104Z,95.19
2022-11-05T02:35:57.437Z,95.19
2022-11-05T02:38:41.692Z,95.48
2022-11-05T02:41:17.226Z,95.94
2022-11-05T02:44:04.213Z,96.57
2022-11-05T02:46:40.250Z,96.37
2022-11-05T02:49:17.194Z,96.26
2022-11-05T02:51:58.270Z,96.32
2022-11-05T02:54:35.282Z,96.30
2022-11-05T02:57:03.410Z,96.29
2022-11-05T02:59:30.574Z,96.04
2022-11-05T03:01:59.543Z,96.14
2022-11-05T03:04:26.782Z,96.15
2022-11-05T03:07:13.359Z,96.17
2022-11-05T03:10:07.852Z,96.09
2022-11-05T03:13:14.323Z,96.44
2022-11-05T03:15:40.786Z,96.28
2022-11-05T03:18:30.426Z,96.75
2022-11-05T03:21:04.837Z,96.54
2022-11-05T03:23:36.483Z,96.52
2022-11-05T03:26:28.569Z,96.09
2022-11-05T03:29:01.329Z,96.01
2022-11-05T03:31:30.479Z,96.76
2022-11-05T03:33:59.464Z,96.10
2022-11-05T03:36:33.823Z,95.83
2022-11-05T03:39:05.377Z,95.89
2022-11-05T03:41:35.069Z,96.04
2022-11-05T03:44:06.386Z,95.74
2022-11-05T03:46:39.321Z,95.95
2022-11-05T03:49:08.792Z,95.62
2022-11-05T03:52:11.067Z,96.49
2022-11-05T03:54:37.787Z,96.35
2022-11-05T03:57:12.463Z,96.12
2022-11-05T03:59:42.738Z,95.92
2022-11-05T04:02:11.312Z,95.89
2022-11-05T04:04:38.299Z,95.98
2022-11-05T04:07:23.905Z,95.88
2022-11-05T04:10:09.021Z,96.04
2022-11-05T04:12:53.818Z,96.34
2022-11-05T04:15:20.352Z,96.17
2022-11-05T04:17:46.862Z,96.49
2022-11-05T04:20:32.013Z,96.83
2022-11-05T04:23:36.034Z,96.70
2022-11-05T04:26:02.509Z,96.59
2022-11-05T04:28:48.978Z,96.72
2022-11-05T04:31:15.456Z,96.63
2022-11-05T04:33:41.935Z,96.73
2022-11-05T04:36:08.803Z,96.70
2022-11-05T04:38:35.270Z,96.61
2022-11-05T04:41:16.414Z,96.91
2022-11-05T04:43:43.628Z,96.52
2022-11-05T04:46:10.647Z,96.42
2022-11-05T04:48:37.818Z,96.48
2022-11-05T04:51:05.382Z,96.65
2022-11-05T04:53:32.017Z,96.14
2022-11-05T04:56:22.668Z,96.42
2022-11-05T04:58:49.481Z,96.44
2022-11-05T05:01:19.150Z,97.19
2022-11-05T05:03:50.605Z,98.32
2022-11-05T05:06:17.822Z,97.39
2022-11-05T05:08:44.604Z,97.19
2022-11-05T05:11:13.214Z,96.94
2022-11-05T05:13:39.705Z,97.17
2022-11-05T05:16:08.268Z,97.39
2022-11-05T05:18:35.213Z,97.52
2022-11-05T05:21:20.612Z,97.54
2022-11-05T05:23:48.469Z,97.61
2022-11-05T05:26:17.456Z,97.58
2022-11-05T05:28:43.946Z,97.57
2022-11-05T05:31:15.117Z,97.44
2022-11-05T05:33:41.602Z,96.82
2022-11-05T05:36:11.462Z,97.21
2022-11-05T05:38:38.373Z,97.09
2022-11-05T05:41:04.997Z,97.45
2022-11-05T05:43:32.761Z,96.96
2022-11-05T05:46:07.945Z,96.87
2022-11-05T05:48:34.707Z,97.31
2022-11-05T05:51:02.387Z,97.51
2022-11-05T05:53:29.510Z,97.67
2022-11-05T05:55:56.988Z,97.56
2022-11-05T05:58:24.655Z,97.55
2022-11-05T06:00:51.235Z,97.35
2022-11-05T06:03:17.792Z,97.80
2022-11-05T06:05:45.578Z,97.69
2022-11-05T06:08:12.096Z,97.24
2022-11-05T06:10:38.786Z,97.02
2022-11-05T06:13:05.382Z,96.89
2022-11-05T06:15:35.825Z,97.17
2022-11-05T06:18:02.745Z,97.22
2022-11-05T06:20:29.386Z,97.43
2022-11-05T06:22:58.730Z,97.19
2022-11-05T06:25:25.682Z,96.77
2022-11-05T06:27:53.760Z,96.63
2022-11-05T06:30:21.723Z,96.59
2022-11-05T06:32:48.220Z,96.88
2022-11-05T06:35:15.250Z,96.55
2022-11-05T06:37:41.858Z,96.44
2022-11-05T06:40:08.995Z,96.44
2022-11-05T06:42:35.498Z,96.13
2022-11-05T06:45:02.033Z,96.03
2022-11-05T06:47:28.553Z,96.41
2022-11-05T06:49:56.837Z,96.24
2022-11-05T06:52:23.357Z,96.03
2022-11-05T06:54:50.149Z,95.92
2022-11-05T06:57:16.682Z,95.89
2022-11-05T06:59:43.208Z,96.07
2022-11-05T07:02:13.572Z,96.54
2022-11-05T07:04:40.182Z,96.10
2022-11-05T07:07:06.679Z,95.84
2022-11-05T07:09:33.173Z,95.98
2022-11-05T07:11:59.964Z,96.19
2022-11-05T07:14:26.468Z,96.19
2022-11-05T07:16:52.988Z,96.41
2022-11-05T07:19:19.478Z,96.80
2022-11-05T07:21:46.029Z,96.27
2022-11-05T07:24:14.380Z,96.22
2022-11-05T07:26:41.187Z,96.47
2022-11-05T07:29:07.686Z,96.26
2022-11-05T07:31:34.185Z,96.35
2022-11-05T07:34:01.032Z,96.02
2022-11-05T07:36:27.542Z,96.24
2022-11-05T07:38:59.916Z,96.07
2022-11-05T07:41:26.996Z,95.92
2022-11-05T07:43:53.577Z,95.35
2022-11-05T07:46:20.125Z,94.97
2022-11-05T07:48:46.613Z,95.88
2022-11-05T07:51:13.092Z,96.20
2022-11-05T07:53:44.871Z,95.94
2022-11-05T07:56:12.916Z,96.34
2022-11-05T07:58:39.517Z,96.14
2022-11-05T08:01:07.242Z,95.77
2022-11-05T08:03:34.674Z,95.76
2022-11-05T08:06:01.378Z,95.97
2022-11-05T08:08:27.865Z,95.75
2022-11-05T08:10:54.414Z,95.48
2022-11-05T08:13:20.944Z,95.62
2022-11-05T08:15:47.851Z,95.92
2022-11-05T08:18:16.679Z,95.75
2022-11-05T08:20:44.457Z,95.59
2022-11-05T08:23:11.569Z,95.59
2022-11-05T08:25:39.744Z,95.21
2022-11-05T08:28:10.241Z,95.06
2022-11-05T08:30:36.797Z,94.63
2022-11-05T08:33:09.471Z,94.69
2022-11-05T08:35:38.007Z,94.34
2022-11-05T08:38:06.795Z,94.81
2022-11-05T08:40:35.241Z,93.79
2022-11-05T08:43:03.924Z,93.52
2022-11-05T08:45:31.072Z,93.05
2022-11-05T08:48:05.584Z,92.76
2022-11-05T08:50:33.037Z,93.16
2022-11-05T08:52:59.868Z,92.82
2022-11-05T08:55:26.844Z,91.94
2022-11-05T08:58:01.255Z,91.12
2022-11-05T09:00:31.224Z,90.74
2022-11-05T09:03:02.412Z,91.47
2022-11-05T09:05:30.565Z,92.09
2022-11-05T09:08:01.025Z,92.04
2022-11-05T09:10:28.622Z,92.00
2022-11-05T09:12:55.442Z,91.54
2022-11-05T09:15:23.222Z,91.16
2022-11-05T09:17:50.019Z,90.19
2022-11-05T09:20:16.533Z,90.37
2022-11-05T09:22:43.556Z,90.56
2022-11-05T09:25:10.703Z,89.84
2022-11-05T09:27:37.343Z,89.34
2022-11-05T09:30:04.896Z,88.03
2022-11-05T09:32:32.324Z,89.05
2022-11-05T09:35:01.102Z,89.12
2022-11-05T09:37:29.386Z,88.12
2022-11-05T09:39:56.180Z,88.43
2022-11-05T09:42:26.178Z,88.36
2022-11-05T09:44:59.318Z,89.57
2022-11-05T09:47:51.950Z,88.94
2022-11-05T09:50:33.784Z,87.39
2022-11-05T09:53:01.845Z,88.28
2022-11-05T09:55:40.002Z,88.30
2022-11-05T09:58:21.255Z,87.56
2022-11-05T10:00:52.872Z,87.83
2022-11-05T10:03:23.058Z,86.61
2022-11-05T10:05:51.448Z,85.30
2022-11-05T10:08:28.939Z,84.62
2022-11-05T10:11:07.436Z,83.49
2022-11-05T10:13:45.567Z,83.96
2022-11-05T10:16:18.259Z,86.39
2022-11-05T10:18:51.207Z,84.99
2022-11-05T10:21:37.667Z,82.99
2022-11-05T10:24:17.726Z,84.27
2022-11-05T10:26:49.019Z,82.08
2022-11-05T10:29:25.658Z,82.57
2022-11-05T10:31:54.505Z,83.23
2022-11-05T10:34:26.523Z,84.27
2022-11-05T10:36:54.351Z,84.06
2022-11-05T10:39:21.619Z,81.91
2022-11-05T10:42:09.910Z,83.56
2022-11-05T10:44:55.191Z,81.54
2022-11-05T10:47:32.599Z,82.02
2022-11-05T10:50:05.343Z,82.41
2022-11-05T10:53:11.600Z,81.66
2022-11-05T10:55:42.518Z,80.72
2022-11-05T10:58:15.160Z,82.02
2022-11-05T11:01:00.827Z,80.80
2022-11-05T11:03:53.081Z,79.07
2022-11-05T11:06:22.379Z,78.54
2022-11-05T11:08:50.149Z,78.89
2022-11-05T11:11:35.951Z,79.01
2022-11-05T11:14:07.202Z,79.09
2022-11-05T11:16:37.811Z,74.92
2022-11-05T11:19:23.948Z,73.15
2022-11-05T11:22:18.690Z,73.81
2022-11-05T11:24:48.958Z,73.37
2022-11-05T11:27:30.260Z,72.71
2022-11-05T11:30:05.237Z,72.39
2022-11-05T11:32:39.032Z,70.27
2022-11-05T11:35:08.541Z,69.54
2022-11-05T11:37:41.945Z,69.39
2022-11-05T11:40:17.783Z,71.51
2022-11-05T11:42:48.546Z,70.67
2022-11-05T11:45:27.302Z,70.06
2022-11-05T11:47:55.723Z,68.84
2022-11-05T11:50:32.935Z,69.31
2022-11-05T11:53:17.648Z,68.49
2022-11-05T11:56:01.211Z,68.90
2022-11-05T11:58:39.026Z,69.22
2022-11-05T12:01:31.900Z,68.94
2022-11-05T12:04:10.533Z,71.72
2022-11-05T12:06:46.881Z,70.27
2022-11-05T12:09:34.804Z,72.22
2022-11-05T12:12:14.079Z,71.66
2022-11-05T12:15:15.282Z,70.39
2022-11-05T12:17:59.350Z,69.17
2022-11-05T12:20:25.885Z,68.03
2022-11-05T12:23:24.052Z,67.42
2022-11-05T12:26:10.740Z,67.45
2022-11-05T12:29:17.936Z,67.93
2022-11-05T12:32:10.139Z,66.95
2022-11-05T12:34:51.675Z,67.75
2022-11-05T12:37:37.398Z,68.13
2022-11-05T12:40:22.509Z,69.34
2022-11-05T12:43:13.000Z,65.19
2022-11-05T12:46:13.981Z,65.42
2022-11-05T12:48:59.715Z,66.02
2022-11-05T12:52:04.866Z,63.61
2022-11-05T12:55:09.285Z,63.41
2022-11-05T12:57:40.256Z,63.21
2022-11-05T13:00:25.157Z,64.59
2022-11-05T13:03:10.306Z,64.74
2022-11-05T13:05:39.993Z,67.35
2022-11-05T13:08:15.884Z,63.53
2022-11-05T13:10:51.943Z,62.09
2022-11-05T13:13:38.337Z,61.05
2022-11-05T13:16:12.414Z,62.19
2022-11-05T13:18:48.870Z,63.70
2022-11-05T13:21:17.329Z,62.42
2022-11-05T13:23:53.392Z,61.24
2022-11-05T13:26:29.408Z,64.33
2022-11-05T13:29:03.780Z,64.99
2022-11-05T13:31:43.725Z,59.84
2022-11-05T13:34:12.171Z,60.29
2022-11-05T13:37:08.986Z,59.05
2022-11-05T13:39:50.052Z,61.99
2022-11-05T13:42:42.577Z,59.70
2022-11-05T13:45:39.999Z,58.48
2022-11-05T13:48:34.733Z,58.54
2022-11-05T13:51:50.909Z,59.42
2022-11-05T13:54:41.736Z,58.17
2022-11-05T13:57:17.155Z,58.77
2022-11-05T13:59:49.754Z,59.90
2022-11-05T14:02:26.449Z,59.49
2022-11-05T14:05:00.982Z,61.85
2022-11-05T14:07:32.089Z,59.38
2022-11-05T14:10:10.251Z,58.39
2022-11-05T14:12:39.511Z,59.24
2022-11-05T14:15:15.074Z,61.37
2022-11-05T14:17:58.955Z,60.94
2022-11-05T14:20:27.023Z,60.32
2022-11-05T14:22:53.654Z,62.74
2022-11-05T14:25:20.161Z,62.62
2022-11-05T14:27:49.300Z,61.84
2022-11-05T14:30:45.423Z,63.62
2022-11-05T14:33:24.107Z,63.20
2022-11-05T14:35:51.161Z,62.48
2022-11-05T14:38:22.240Z,64.22
2022-11-05T14:40:49.706Z,64.32
2022-11-05T14:43:22.634Z,63.56
2022-11-05T14:46:07.832Z,65.02
2022-11-05T14:48:54.093Z,65.62
2022-11-05T14:51:37.870Z,66.17
2022-11-05T14:54:30.570Z,66.71
2022-11-05T14:56:59.660Z,68.47
2022-11-05T14:59:29.058Z,67.51
2022-11-05T15:02:09.764Z,68.33
2022-11-05T15:04:40.601Z,68.80
2022-11-05T15:07:07.032Z,68.70
2022-11-05T15:10:07.255Z,69.03
2022-11-05T15:12:50.637Z,68.62
2022-11-05T15:15:30.269Z,69.82
2022-11-05T15:18:02.742Z,71.07
2022-11-05T15:20:45.538Z,70.86
2022-11-05T15:23:16.174Z,71.22
2022-11-05T15:25:57.947Z,71.42
2022-11-05T15:28:34.188Z,71.94
2022-11-05T15:31:04.390Z,72.18
2022-11-05T15:33:32.082Z,72.73
2022-11-05T15:36:28.341Z,72.75
2022-11-05T15:39:27.983Z,72.94
2022-11-05T15:41:43.083Z,73.89
2022-11-05T15:44:25.126Z,74.50
2022-11-05T15:47:14.920Z,75.01
2022-11-05T15:49:48.400Z,75.65
2022-11-05T15:52:18.111Z,75.79
2022-11-05T15:54:46.276Z,76.69
2022-11-05T15:57:28.961Z,77.49
2022-11-05T15:59:55.587Z,78.51
2022-11-05T16:02:28.816Z,79.40
2022-11-05T16:04:56.933Z,79.29
2022-11-05T16:07:23.918Z,80.09
2022-11-05T16:10:01.713Z,80.82
2022-11-05T16:12:36.840Z,80.47
2022-11-05T16:15:10.758Z,81.32
2022-11-05T16:17:40.069Z,81.82
2022-11-05T16:20:30.359Z,81.83
2022-11-05T16:23:02.732Z,82.41
2022-11-05T16:25:37.031Z,82.96
2022-11-05T16:28:06.418Z,83.22
2022-11-05T16:30:32.984Z,83.14
2022-11-05T16:33:05.593Z,82.82
2022-11-05T16:35:32.162Z,82.92
2022-11-05T16:38:01.918Z,83.24
2022-11-05T16:40:29.444Z,83.46
2022-11-05T16:43:09.815Z,83.42
2022-11-05T16:45:41.394Z,83.44
2022-11-05T16:48:11.440Z,83.77
2022-11-05T16:50:38.342Z,83.84
2022-11-05T16:53:05.017Z,83.82
2022-11-05T16:55:33.465Z,84.52
2022-11-05T16:58:00.364Z,84.25
2022-11-05T17:00:26.982Z,85.65
2022-11-05T17:02:53.979Z,84.78
2022-11-05T17:05:25.330Z,84.87
2022-11-05T17:07:52.530Z,85.37
2022-11-05T17:10:20.395Z,85.34
2022-11-05T17:12:47.738Z,85.58
2022-11-05T17:15:24.438Z,85.62
2022-11-05T17:17:52.232Z,85.25
2022-11-05T17:20:34.995Z,85.22
2022-11-05T17:23:06.279Z,85.29
2022-11-05T17:25:33.301Z,85.87
2022-11-05T17:28:00.133Z,86.07
2022-11-05T17:30:26.657Z,85.55
2022-11-05T17:32:53.571Z,85.82
2022-11-05T17:35:20.508Z,85.76
2022-11-05T17:37:47.240Z,85.60
2022-11-05T17:40:17.127Z,86.00
2022-11-05T17:42:44.265Z,85.59
2022-11-05T17:45:12.230Z,86.01
2022-11-05T17:47:40.958Z,86.42
2022-11-05T17:50:11.318Z,86.12
2022-11-05T17:52:38.183Z,86.44
2022-11-05T17:55:07.212Z,86.57
2022-11-05T17:57:33.709Z,87.09
2022-11-05T18:00:01.274Z,86.84
2022-11-05T18:02:29.609Z,86.81
2022-11-05T18:04:56.381Z,86.94
2022-11-05T18:07:22.870Z,87.20
2022-11-05T18:09:49.402Z,87.14
2022-11-05T18:12:17.002Z,87.12
2022-11-05T18:14:43.591Z,87.41
2022-11-05T18:17:11.235Z,87.49
2022-11-05T18:19:38.894Z,87.64
2022-11-05T18:22:06.327Z,88.07
2022-11-05T18:24:33.449Z,88.32
2022-11-05T18:27:00.103Z,88.33
2022-11-05T18:29:26.842Z,88.04
2022-11-05T18:31:59.571Z,88.32
2022-11-05T18:34:40.812Z,88.34
2022-11-05T18:37:13.174Z,89.03
2022-11-05T18:39:46.591Z,89.37
2022-11-05T18:42:15.224Z,89.47
2022-11-05T18:44:41.737Z,89.84
2022-11-05T18:47:08.312Z,89.57
2022-11-05T18:49:36.307Z,89.52
2022-11-05T18:52:03.391Z,89.99
2022-11-05T18:54:30.263Z,89.47
2022-11-05T18:56:56.861Z,89.97
2022-11-05T18:59:37.584Z,89.54
2022-11-05T19:02:05.818Z,89.09
2022-11-05T19:04:32.501Z,89.07
2022-11-05T19:07:04.183Z,89.14
2022-11-05T19:09:31.671Z,88.96
2022-11-05T19:11:58.197Z,88.89
2022-11-05T19:14:24.716Z,89.12
2022-11-05T19:16:51.300Z,89.18
2022-11-05T19:19:18.938Z,89.19
2022-11-05T19:21:45.685Z,89.32
2022-11-05T19:24:16.772Z,89.29
2022-11-05T19:26:43.980Z,89.64
2022-11-05T19:29:11.092Z,89.72
2022-11-05T19:31:38.380Z,89.62
2022-11-05T19:34:05.656Z,89.69
2022-11-05T19:36:33.145Z,89.67
2022-11-05T19:39:08.931Z,89.81
2022-11-05T19:41:38.571Z,89.60
2022-11-05T19:44:06.304Z,89.88
2022-11-05T19:46:34.050Z,89.93
2022-11-05T19:49:01.128Z,90.09
2022-11-05T19:51:31.997Z,89.96
2022-11-05T19:54:00.776Z,90.00
2022-11-05T19:56:32.339Z,90.04
2022-11-05T19:59:00.039Z,90.20
2022-11-05T20:01:29.442Z,90.37
2022-11-05T20:03:58.217Z,90.21
2022-11-05T20:06:38.754Z,90.01
2022-11-05T20:09:21.027Z,90.84
2022-11-05T20:11:49.824Z,90.98
2022-11-05T20:14:17.108Z,90.53
2022-11-05T20:16:45.051Z,90.31
2022-11-05T20:19:14.857Z,90.38
2022-11-05T20:21:42.074Z,91.03
2022-11-05T20:24:11.010Z,90.93
2022-11-05T20:26:38.401Z,90.85
2022-11-05T20:29:04.958Z,90.83
2022-11-05T20:31:31.669Z,91.10
2022-11-05T20:33:58.323Z,91.02
2022-11-05T20:36:25.926Z,91.14
2022-11-05T20:38:55.557Z,90.87
2022-11-05T20:41:22.874Z,91.32
2022-11-05T20:43:49.682Z,91.34
2022-11-05T20:46:30.600Z,91.62
2022-11-05T20:48:57.139Z,91.29
2022-11-05T20:51:25.322Z,91.36
2022-11-05T20:53:59.177Z,91.15
2022-11-05T20:56:29.501Z,91.17
2022-11-05T20:59:02.874Z,91.16
2022-11-05T21:01:32.646Z,91.64
2022-11-05T21:03:59.896Z,91.30
2022-11-05T21:06:26.606Z,91.17
2022-11-05T21:08:53.874Z,91.39
2022-11-05T21:11:20.631Z,91.14
2022-11-05T21:13:47.640Z,90.96
2022-11-05T21:16:18.213Z,91.12
2022-11-05T21:18:48.540Z,90.84
2022-11-05T21:21:18.257Z,91.01
2022-11-05T21:23:44.897Z,91.14
2022-11-05T21:26:13.623Z,91.20
2022-11-05T21:28:41.240Z,91.39
2022-11-05T21:31:08.843Z,91.22
2022-11-05T21:33:36.280Z,91.33
2022-11-05T21:36:12.535Z,91.18
2022-11-05T21:38:40.083Z,91.33
2022-11-05T21:41:07.837Z,91.59
2022-11-05T21:43:34.893Z,91.34
2022-11-05T21:46:03.599Z,91.77
2022-11-05T21:48:30.850Z,91.39
2022-11-05T21:51:16.055Z,91.15
2022-11-05T21:54:01.029Z,91.36
2022-11-05T21:56:47.575Z,91.62
2022-11-05T21:59:38.636Z,92.18
2022-11-05T22:02:23.006Z,91.97
2022-11-05T22:04:55.262Z,91.94
2022-11-05T22:07:28.915Z,91.98
2022-11-05T22:09:55.590Z,91.95
2022-11-05T22:12:24.722Z,91.79
2022-11-05T22:14:52.453Z,91.48
2022-11-05T22:17:20.154Z,91.01
2022-11-05T22:19:52.951Z,91.41
2022-11-05T22:22:34.477Z,91.38
2022-11-05T22:25:00.995Z,91.28
2022-11-05T22:27:27.537Z,91.14
2022-11-05T22:29:56.541Z,91.14
2022-11-05T22:32:33.309Z,91.23
2022-11-05T22:34:59.780Z,91.34
2022-11-05T22:37:26.398Z,91.44
2022-11-05T22:39:52.875Z,91.92
2022-11-05T22:42:19.395Z,91.83
2022-11-05T22:44:45.905Z,91.76
2022-11-05T22:47:14.060Z,91.91
2022-11-05T22:49:45.992Z,91.85
2022-11-05T22:52:12.474Z,91.57
2022-11-05T22:54:39.581Z,91.47
2022-11-05T22:57:06.269Z,92.01
2022-11-05T22:59:33.469Z,91.77
2022-11-05T23:02:03.934Z,92.27
2022-11-05T23:04:33.180Z,93.22
2022-11-05T23:07:21.968Z,92.78
2022-11-05T23:10:09.524Z,92.55
2022-11-05T23:12:42.498Z,92.50
2022-11-05T23:15:29.413Z,92.72
2022-11-05T23:18:14.891Z,92.75
2022-11-05T23:21:00.023Z,92.90
2022-11-05T23:23:44.819Z,93.15
2022-11-05T23:26:29.599Z,92.72
2022-11-05T23:29:23.783Z,91.75
2022-11-05T23:32:09.866Z,91.74
2022-11-05T23:34:37.190Z,91.06
2022-11-05T23:37:22.547Z,91.17
2022-11-05T23:39:50.283Z,90.89
2022-11-05T23:42:35.912Z,90.67
2022-11-05T23:45:22.417Z,90.62
2022-11-05T23:48:07.293Z,90.52
2022-11-05T23:50:38.484Z,90.38
2022-11-05T23:53:07.400Z,90.64
2022-11-05T23:55:34.333Z,90.47
2022-11-05T23:58:00.923Z,90.69
